Terminal Aerodrome Forecast
Issued by NWS Sterling, VA

Current Version | Previous Version | Text Only | Print | Product List | Glossary On
Versions: 1 2 3 4 5 6 7 8 9 10 11 12 13 14 15 16 17 18 19 20
000
FTUS41 KLWX 272334
TAFMRB
TAF
KMRB 272334Z 2800/2824 00000KT 4SM BR OVC007
     FM280300 00000KT 2SM BR OVC003
     FM281400 08006KT 2SM -RA BR OVC003=

USA.gov is the U.S. government's official web portal to all federal, state and local government web resources and services.